Chestnut Hill, North Carolina
Current Conditions -  °F | °C
As of 12:55 PM on Friday 24 Oct 2014 (Local Time) from KGEV Reporting Station
Clear Clear  
Wind Chill: 59°   Ceiling: Unl
Heat Index: 59°   Visibility: 10mi
Dew Point: 31°   Wind: 3mph
Humidity: 35%   Direction: 100°E
Pressure: 30.07"   Gusts: NA
Location:  36.484°N, 81.3801°W
Report Text: KGEV 241655Z AUTO 10003KT 10SM CLR 15/M01 A3007 RMK AO2 T01501006
Loading
Personal Weather Stations






























Interactive Weather Map
Tropical Storm Tracking
New forecast layout! Learn more

10-Day Weather Forecast

Advertisements
Track Severe Weather on mobile